Lafayette, IN (47904)

12:01 AM EDT on October 31, 2014 (GMT -0400)
APRSWXNET Lafayette IN US | Change Station
CLOSE
Current Station
Personal Weather Station
Location: Lafayette, IN
Elevation: 617 ft
Nearby Weather Stations
Active Advisory: Freeze Warning

Elev 617 ft 40.46 °N, 86.83 °W | Updated 37 minutes ago

Overcast
Overcast
46 °F
Feels Like 46 °F
N
0
Wind Variable Wind from NNW
Gusts 0.0 mph

Today
High -- | Low -- °F
--% Chance of Precip.
Yesterday
High -- | Low -- °F
Precip. -- in
8:16 AM 6:45 PM
Waxing Crescent, 51% visible
Pressure 30.06 in
Visibility 10.0 miles
Clouds Few 5000 ft
Scattered Clouds 12000 ft
Windchill 46 °F
Dew Point 44 °F
Humidity 94%
Rainfall 0.00 in
Snow Depth Not available.
UV 0 out of 12
Pollen .20 out of 12
Air Quality Not available.
Flu Activity Not available.
METAR KLAF 310354Z AUTO 27003KT 10SM FEW050 SCT120 06/04 A3005 RMK AO2 SLP179 T00610044 TSNO

More Conditions Fewer Conditions

Pressure 30.06 in
Visibility 10.0 miles
Clouds Few 5000 ft
Scattered Clouds 12000 ft
Windchill 46 °F
Dew Point 44 °F
Humidity 94%
Rainfall 0.00 in
Snow Depth Not available.
UV 0 out of 12
Pollen .20 out of 12
Air Quality Not available.
Flu Activity Not available.
METAR KLAF 310354Z AUTO 27003KT 10SM FEW050 SCT120 06/04 A3005 RMK AO2 SLP179 T00610044 TSNO

More Conditions Fewer Conditions

10-Day Weather Forecast

Almanac

Astronomy

Oct. 31, 2014 Rise Set
Actual Time
Civil Twilight
Nautical Twilight
Astronomical Twilight
Moon
Length of Visible Light
Length of Day
Tomorrow will be .
, % of the Moon is Illuminated

Today's Extremes

State Highs State Lows

Community

WunderPhotos

Upload Photos

1,766,563 photos uploaded!

WunderBlogs® & News

Nearby

Air Quality

  Air Quality AQ Index Pollutant
Not available.

Snow Depth

Station Depth Elevation

Earthquake Activity

City Distance Mag. Time & Date
Minimum magnitude displayed is 2.5.

Coastal Water Temperatures

Place Temperature

Nearby Weather Stations